Time;durP1;ratioP1;P1;durP2;ratioP2;P2;SDS_P1;SDS_P2;PMS_P1;PMS_P2;Temp;Humidity;BMP_temperature;BMP_pressure;BME280_temperature;BME280_humidity;BME280_pressure;Samples;Min_cycle;Max_cycle;Signal;HPM_P1;HPM_P2
2021/06/18 00:02:01;;;;;;;3.33;1.75;;;;;;;21.25;60.34;100584.39;1851291;76;28575;-62
2021/06/18 00:04:37;;;;;;;2.62;1.60;;;;;;;21.33;60.21;100583.59;1815488;77;28359;-61
2021/06/18 00:07:11;;;;;;;4.35;1.67;;;;;;;21.44;59.85;100580.63;1831273;77;22494;-62
2021/06/18 00:09:46;;;;;;;1.67;1.30;;;;;;;21.46;60.07;100581.30;1831039;77;22464;-62
2021/06/18 00:12:21;;;;;;;4.92;1.60;;;;;;;21.43;59.90;100600.19;1849521;77;22181;-62
2021/06/18 00:14:59;;;;;;;2.45;1.75;;;;;;;21.37;59.79;100587.58;1831016;77;22882;-61
2021/06/18 00:17:43;;;;;;;2.60;1.60;;;;;;;21.29;59.92;100590.20;1789773;80;21150;-62
2021/06/18 00:20:19;;;;;;;3.22;1.80;;;;;;;21.30;59.99;100585.23;1815343;77;27957;-61
2021/06/18 00:22:54;;;;;;;1.45;1.35;;;;;;;21.31;60.06;100596.17;1849588;77;22554;-61
2021/06/18 00:25:29;;;;;;;1.85;1.30;;;;;;;21.32;59.92;100593.86;1831019;77;22130;-61
2021/06/18 00:28:15;;;;;;;4.47;1.60;;;;;;;21.25;59.91;100592.84;1789770;79;21141;-61
2021/06/18 00:30:50;;;;;;;4.83;1.50;;;;;;;21.24;59.87;100593.34;1830998;77;22163;-62
2021/06/18 00:33:25;;;;;;;2.83;1.52;;;;;;;21.19;59.79;100594.78;1849583;77;22145;-62
2021/06/18 00:36:10;;;;;;;1.87;1.35;;;;;;;21.11;59.84;100586.80;1822270;78;21117;-62
2021/06/18 00:38:45;;;;;;;4.58;1.32;;;;;;;21.11;59.96;100585.48;1831164;77;22150;-62
2021/06/18 00:41:19;;;;;;;3.52;1.30;;;;;;;21.07;60.10;100585.47;1831105;77;22146;-62
2021/06/18 00:43:55;;;;;;;2.72;1.32;;;;;;;21.03;60.22;100587.60;1815366;77;27935;-62
2021/06/18 00:46:42;;;;;;;1.57;1.47;;;;;;;21.01;60.21;100580.80;1725190;83;21161;-61
2021/06/18 00:49:16;;;;;;;2.42;1.50;;;;;;;21.06;60.01;100580.66;1831164;77;22123;-62
2021/06/18 00:51:51;;;;;;;2.80;1.50;;;;;;;21.04;60.06;100572.53;1849627;77;22540;-61
2021/06/18 00:54:39;;;;;;;2.05;1.20;;;;;;;21.00;60.15;100575.17;1822259;78;21184;-62
2021/06/18 00:57:14;;;;;;;1.92;1.30;;;;;;;21.04;60.19;100569.88;1831288;77;22119;-62
2021/06/18 00:59:48;;;;;;;1.22;1.12;;;;;;;21.02;60.18;100563.91;1831120;77;22490;-62
2021/06/18 01:02:23;;;;;;;7.00;1.40;;;;;;;21.01;60.02;100567.06;1849678;77;22627;-62
2021/06/18 01:05:12;;;;;;;4.17;1.60;;;;;;;20.94;60.06;100557.59;1755358;81;21308;-61
2021/06/18 01:08:07;;;;;;;1.55;1.45;;;;;;;20.94;60.12;100564.22;1831171;77;22142;-62
2021/06/18 01:10:55;;;;;;;1.95;1.40;;;;;;;20.92;60.22;100560.90;1849816;77;22189;-62
2021/06/18 01:14:07;;;;;;;3.37;1.42;;;;;;;20.90;60.31;100559.40;1849679;77;22838;-62
2021/06/18 01:16:52;;;;;;;1.60;1.47;;;;;;;20.85;60.43;100559.05;1849835;77;22150;-62
2021/06/18 01:20:11;;;;;;;2.47;1.55;;;;;;;20.82;60.49;100560.20;1830395;77;22872;-62
2021/06/18 01:22:46;;;;;;;4.62;1.42;;;;;;;20.80;60.61;100552.10;1831063;77;22149;-62
2021/06/18 01:25:46;;;;;;;1.77;1.62;;;;;;;20.76;60.86;100549.44;1831100;77;22961;-61
2021/06/18 01:28:50;;;;;;;2.22;1.42;;;;;;;20.72;60.72;100557.36;1849645;77;22114;-61
2021/06/18 01:31:39;;;;;;;3.75;1.77;;;;;;;20.67;60.40;100545.92;1815739;77;27928;-61
2021/06/18 01:34:19;;;;;;;5.22;1.45;;;;;;;20.68;60.31;100560.83;1831287;77;22150;-61
2021/06/18 01:36:59;;;;;;;3.20;1.55;;;;;;;20.67;60.23;100551.71;1849656;77;22540;-62
2021/06/18 01:39:48;;;;;;;1.98;1.40;;;;;;;20.60;60.40;100552.84;1821893;78;21171;-61
2021/06/18 01:42:23;;;;;;;1.25;1.17;;;;;;;20.61;60.49;100554.00;1831071;77;22502;-61
2021/06/18 01:44:57;;;;;;;3.40;1.35;;;;;;;20.58;60.51;100550.84;1831046;77;22670;-61
2021/06/18 01:47:32;;;;;;;3.90;1.60;;;;;;;20.57;60.43;100544.72;1831329;77;22581;-61
2021/06/18 01:50:08;;;;;;;1.82;0.98;;;;;;;20.58;60.47;100556.14;1831312;77;22845;-61
2021/06/18 01:53:05;;;;;;;3.60;1.20;;;;;;;20.54;60.44;100554.80;1789781;80;21154;-61
2021/06/18 01:55:42;;;;;;;1.47;1.37;;;;;;;20.58;60.35;100553.48;1831437;77;22542;-62
2021/06/18 01:58:18;;;;;;;2.25;1.60;;;;;;;20.59;60.38;100559.13;1815457;77;27956;-61
2021/06/18 02:01:03;;;;;;;2.75;1.25;;;;;;;20.61;60.41;100567.25;1789872;80;21166;-61
2021/06/18 02:03:39;;;;;;;3.08;1.10;;;;;;;20.69;60.40;100563.80;1831231;77;22510;-61
2021/06/18 02:06:15;;;;;;;3.42;1.32;;;;;;;20.69;60.31;100565.13;1833940;77;27942;-61
2021/06/18 02:09:01;;;;;;;2.83;1.50;;;;;;;20.68;60.29;100568.77;1792906;78;21280;-62
2021/06/18 02:11:36;;;;;;;1.37;1.17;;;;;;;20.77;60.09;100573.61;1831480;77;22436;-62
2021/06/18 02:14:17;;;;;;;3.33;1.60;;;;;;;20.73;60.19;100570.45;1831529;77;22142;-62
2021/06/18 02:17:04;;;;;;;2.20;1.35;;;;;;;20.67;60.11;100568.43;1725074;83;21148;-62
2021/06/18 02:19:39;;;;;;;3.08;1.52;;;;;;;20.67;60.19;100567.60;1831308;77;22158;-62
2021/06/18 02:22:14;;;;;;;3.77;1.80;;;;;;;20.64;60.18;100572.72;1815566;77;27942;-62
2021/06/18 02:25:03;;;;;;;2.00;1.10;;;;;;;20.63;60.42;100576.84;1725091;83;21169;-61
2021/06/18 02:27:39;;;;;;;1.87;1.42;;;;;;;20.70;60.59;100577.39;1831272;77;22150;-62
2021/06/18 02:30:13;;;;;;;2.75;1.52;;;;;;;20.67;60.83;100580.35;1831495;77;22510;-62
2021/06/18 02:33:00;;;;;;;2.02;1.35;;;;;;;20.64;60.86;100579.34;1725003;83;21157;-62
2021/06/18 02:35:34;;;;;;;2.12;1.70;;;;;;;20.69;60.93;100574.41;1834061;77;28273;-61
2021/06/18 02:38:09;;;;;;;6.08;1.57;;;;;;;20.77;60.83;100578.91;1831491;77;22158;-62
2021/06/18 02:40:44;;;;;;;4.67;1.60;;;;;;;20.80;60.55;100587.86;1831222;77;22150;-61
2021/06/18 02:43:19;;;;;;;2.05;1.70;;;;;;;20.77;60.59;100587.69;1831153;77;22190;-62
2021/06/18 02:46:04;;;;;;;5.62;1.92;;;;;;;20.70;60.77;100589.30;1789889;80;21900;-62
2021/06/18 02:48:42;;;;;;;2.08;1.80;;;;;;;20.73;60.78;100591.64;1831269;77;22616;-62
2021/06/18 02:51:30;;;;;;;3.20;1.65;;;;;;;20.71;60.72;100588.31;1831093;77;22151;-62
2021/06/18 02:54:31;;;;;;;2.72;1.90;;;;;;;20.69;60.69;100578.38;1831178;77;22635;-62
2021/06/18 02:57:22;;;;;;;2.83;1.82;;;;;;;20.67;61.13;100588.79;1831304;77;22139;-62
2021/06/18 03:00:09;;;;;;;3.85;1.90;;;;;;;20.64;61.31;100592.58;1849606;77;22486;-62
2021/06/18 03:02:59;;;;;;;2.15;1.67;;;;;;;20.58;61.20;100595.86;1821958;78;21165;-61
2021/06/18 03:05:33;;;;;;;4.53;1.55;;;;;;;20.59;61.21;100595.70;1831260;77;22575;-62
2021/06/18 03:08:09;;;;;;;2.25;1.75;;;;;;;20.58;61.13;100599.83;1815587;77;28295;-62
2021/06/18 03:10:48;;;;;;;2.12;1.40;;;;;;;20.63;61.04;100600.19;1831229;77;22534;-62
2021/06/18 03:13:37;;;;;;;4.30;1.53;;;;;;;20.62;60.85;100585.28;1725436;83;21156;-62
2021/06/18 03:16:12;;;;;;;4.10;1.37;;;;;;;20.65;60.93;100591.59;1849879;77;22117;-62
2021/06/18 03:18:47;;;;;;;3.70;1.80;;;;;;;20.65;60.89;100593.41;1815478;77;27970;-61
2021/06/18 03:21:22;;;;;;;2.80;2.05;;;;;;;20.70;60.80;100594.60;1849633;77;22150;-61
2021/06/18 03:23:58;;;;;;;3.65;1.80;;;;;;;20.72;60.68;100591.30;1849662;77;22494;-62
2021/06/18 03:26:43;;;;;;;3.77;1.98;;;;;;;20.67;60.68;100590.94;1822119;78;21303;-62
2021/06/18 03:29:18;;;;;;;1.70;1.60;;;;;;;20.68;60.80;100596.58;1831133;77;22150;-62
2021/06/18 03:31:54;;;;;;;2.72;1.52;;;;;;;20.65;60.84;100594.24;1849631;77;22113;-62
2021/06/18 03:34:39;;;;;;;3.65;1.80;;;;;;;20.60;60.99;100600.50;1822310;78;22124;-62
2021/06/18 03:37:13;;;;;;;2.58;1.77;;;;;;;20.61;61.03;100591.08;1849842;77;22146;-62
2021/06/18 03:39:48;;;;;;;4.22;1.87;;;;;;;20.60;61.15;100589.91;1831094;77;22537;-62
2021/06/18 03:42:23;;;;;;;1.67;1.57;;;;;;;20.60;61.34;100589.42;1831007;77;22213;-62
2021/06/18 03:45:09;;;;;;;2.85;1.92;;;;;;;20.56;61.43;100589.89;1789918;80;21536;-61
2021/06/18 03:47:45;;;;;;;3.37;1.87;;;;;;;20.61;61.48;100590.25;1831203;77;22150;-62
2021/06/18 03:50:22;;;;;;;5.37;2.12;;;;;;;20.62;61.42;100587.94;1815513;77;27958;-61
2021/06/18 03:52:57;;;;;;;2.40;2.17;;;;;;;20.69;61.36;100590.30;1849622;77;22157;-61
2021/06/18 03:55:47;;;;;;;3.67;1.95;;;;;;;20.69;61.49;100596.91;1822052;78;21110;-62
2021/06/18 03:58:21;;;;;;;3.40;1.85;;;;;;;20.71;61.43;100584.84;1831060;77;22183;-62
2021/06/18 04:00:57;;;;;;;2.47;1.55;;;;;;;20.69;61.41;100598.23;1831061;77;22488;-62
2021/06/18 04:03:46;;;;;;;2.75;1.75;;;;;;;20.64;61.35;100600.53;1725017;83;21153;-62
2021/06/18 04:06:21;;;;;;;2.80;1.60;;;;;;;20.67;61.53;100597.56;1849585;77;22149;-62
2021/06/18 04:08:56;;;;;;;3.55;1.90;;;;;;;20.66;61.67;100598.55;1866718;76;22432;-62
2021/06/18 04:11:41;;;;;;;3.15;1.77;;;;;;;20.63;61.66;100596.22;1756743;81;21173;-62
2021/06/18 04:14:17;;;;;;;3.42;2.08;;;;;;;20.69;62.02;100592.94;1815294;77;27926;-61
2021/06/18 04:16:51;;;;;;;1.82;1.72;;;;;;;20.78;62.04;100592.00;1831044;77;22122;-61
2021/06/18 04:19:26;;;;;;;2.37;1.42;;;;;;;20.85;61.98;100598.29;1849660;77;22185;-61
2021/06/18 04:22:16;;;;;;;2.95;1.95;;;;;;;20.83;61.96;100597.61;1822291;78;21476;-61
2021/06/18 04:24:51;;;;;;;2.47;1.80;;;;;;;20.90;62.04;100589.87;1830966;77;22141;-62
2021/06/18 04:27:46;;;;;;;3.30;1.98;;;;;;;20.91;62.32;100580.93;1837489;77;22881;-62
2021/06/18 04:30:26;;;;;;;2.80;1.82;;;;;;;20.91;62.38;100598.98;1830220;77;22177;-62
2021/06/18 04:33:01;;;;;;;1.50;1.40;;;;;;;20.94;62.51;100599.16;1831249;77;22134;-62
2021/06/18 04:35:46;;;;;;;1.72;1.50;;;;;;;20.92;62.59;100611.73;1789753;80;21114;-62
2021/06/18 04:38:21;;;;;;;1.50;1.40;;;;;;;20.99;62.21;100610.61;1831067;77;22146;-62
2021/06/18 04:40:56;;;;;;;3.92;2.42;;;;;;;21.03;62.17;100613.27;1849635;77;22185;-62
2021/06/18 04:43:41;;;;;;;2.50;1.65;;;;;;;21.01;62.05;100609.95;1755247;81;21584;-61
2021/06/18 04:46:16;;;;;;;3.27;1.77;;;;;;;21.08;62.01;100618.92;1849622;77;22126;-61
2021/06/18 04:49:11;;;;;;;3.95;2.20;;;;;;;21.08;62.00;100618.92;1836600;77;22186;-62
2021/06/18 04:51:46;;;;;;;5.22;2.10;;;;;;;21.09;61.84;100621.91;1831106;77;22150;-61
2021/06/18 04:54:40;;;;;;;3.05;1.80;;;;;;;21.10;61.78;100628.88;1836342;77;22165;-61
2021/06/18 04:57:31;;;;;;;3.58;1.80;;;;;;;21.12;61.99;100633.52;1790224;77;22179;-62
2021/06/18 05:00:17;;;;;;;2.08;1.62;;;;;;;21.09;62.18;100641.78;1754170;82;21156;-61
2021/06/18 05:02:52;;;;;;;1.98;1.52;;;;;;;21.14;62.06;100640.31;1831036;77;22150;-61
2021/06/18 05:05:28;;;;;;;1.85;1.57;;;;;;;21.18;62.29;100646.96;1849562;77;22158;-61
2021/06/18 05:08:13;;;;;;;6.85;1.80;;;;;;;21.17;62.58;100647.95;1822161;78;21177;-62
2021/06/18 05:10:48;;;;;;;5.12;1.98;;;;;;;21.24;62.33;100649.00;1830990;77;22118;-62
2021/06/18 05:13:23;;;;;;;3.37;1.70;;;;;;;21.28;62.20;100648.19;1831094;77;22155;-61
2021/06/18 05:15:58;;;;;;;1.72;1.62;;;;;;;21.32;62.12;100650.86;1831014;77;22855;-61
2021/06/18 05:18:45;;;;;;;1.90;1.80;;;;;;;21.32;62.16;100650.86;1789726;79;21129;-61
2021/06/18 05:21:19;;;;;;;1.60;1.40;;;;;;;21.41;62.88;100641.94;1831075;77;22146;-62
2021/06/18 05:23:54;;;;;;;2.90;1.67;;;;;;;21.46;63.10;100640.96;1830995;77;22189;-61
2021/06/18 05:26:30;;;;;;;2.08;1.95;;;;;;;21.50;63.00;100613.63;1849582;77;22622;-61
2021/06/18 05:29:16;;;;;;;1.80;1.70;;;;;;;21.50;63.20;100640.14;1755050;81;21137;-62
2021/06/18 05:31:52;;;;;;;1.98;1.80;;;;;;;21.58;63.27;100633.04;1815295;77;27962;-62
2021/06/18 05:34:27;;;;;;;1.90;1.80;;;;;;;21.68;63.17;100632.86;1833862;77;27954;-61
2021/06/18 05:37:15;;;;;;;3.98;1.72;;;;;;;21.77;62.88;100645.64;1822205;78;21133;-61
2021/06/18 05:39:50;;;;;;;2.92;1.90;;;;;;;21.88;62.73;100630.73;1831088;77;22118;-61
2021/06/18 05:42:26;;;;;;;2.85;2.02;;;;;;;21.88;62.73;100626.26;1830886;77;22608;-62
2021/06/18 05:45:04;;;;;;;2.50;1.50;;;;;;;21.90;62.69;100623.44;1833935;77;28275;-62
2021/06/18 05:47:39;;;;;;;1.82;1.72;;;;;;;21.97;62.54;100635.05;1831456;77;22243;-61
2021/06/18 05:50:25;;;;;;;1.65;1.55;;;;;;;21.96;62.44;100635.22;1789708;79;21126;-61
2021/06/18 05:52:59;;;;;;;5.00;2.10;;;;;;;22.00;62.29;100640.03;1831126;77;22280;-61
2021/06/18 05:55:35;;;;;;;3.20;2.10;;;;;;;21.98;62.10;100640.70;1834251;77;27974;-62
2021/06/18 05:58:21;;;;;;;2.65;1.77;;;;;;;21.98;62.40;100652.64;1754539;81;21142;-62
2021/06/18 06:00:56;;;;;;;2.65;1.75;;;;;;;22.05;62.28;100645.70;1831099;77;22177;-61
2021/06/18 06:03:30;;;;;;;1.82;1.60;;;;;;;22.04;62.37;100653.34;1774447;77;22137;-62
2021/06/18 06:06:16;;;;;;;2.67;2.08;;;;;;;22.00;62.48;100650.65;1740137;82;21164;-61
2021/06/18 06:08:52;;;;;;;2.20;1.55;;;;;;;22.06;62.34;100648.70;1831105;77;22114;-61
2021/06/18 06:11:29;;;;;;;3.25;1.70;;;;;;;22.06;62.35;100660.64;1849661;77;22177;-62
2021/06/18 06:14:17;;;;;;;2.10;1.62;;;;;;;22.02;62.38;100664.61;1754930;81;21138;-61
2021/06/18 06:16:52;;;;;;;3.02;2.20;;;;;;;22.06;62.49;100654.50;1833847;77;27972;-62
2021/06/18 06:19:27;;;;;;;2.62;1.80;;;;;;;22.10;62.67;100659.31;1831001;77;22449;-62
2021/06/18 06:22:03;;;;;;;2.17;1.72;;;;;;;22.14;62.85;100667.28;1831181;77;22188;-62
2021/06/18 06:24:48;;;;;;;2.42;1.98;;;;;;;22.11;62.83;100668.94;1724985;83;21121;-61
2021/06/18 06:27:23;;;;;;;2.10;2.00;;;;;;;22.16;62.74;100661.31;1849558;77;22114;-62
2021/06/18 06:29:58;;;;;;;3.02;2.25;;;;;;;22.18;62.42;100663.30;1830986;77;22154;-69
2021/06/18 06:32:44;;;;;;;3.15;2.30;;;;;;;22.19;61.06;100667.61;1722968;83;21122;-67
2021/06/18 06:35:17;;;;;;;2.85;2.17;;;;;;;22.22;60.02;100672.59;1793266;77;22262;-69
2021/06/18 06:37:54;;;;;;;2.75;2.00;;;;;;;22.20;59.80;100663.97;1827744;77;22115;-65
2021/06/18 06:40:28;;;;;;;2.92;2.35;;;;;;;22.19;59.63;100676.08;1813058;77;23193;-64
2021/06/18 06:43:13;;;;;;;2.27;1.80;;;;;;;22.14;59.87;100675.24;1786395;80;21125;-67
2021/06/18 06:45:47;;;;;;;5.03;2.35;;;;;;;22.13;60.17;100678.89;1817838;77;22200;-67
2021/06/18 06:48:20;;;;;;;4.30;2.10;;;;;;;22.10;60.32;100671.26;1825287;77;22601;-65
2021/06/18 06:51:07;;;;;;;3.17;2.30;;;;;;;22.06;60.63;100687.18;1766983;80;21138;-63
2021/06/18 06:53:42;;;;;;;3.47;2.83;;;;;;;22.10;60.68;100685.03;1830833;77;22708;-65
2021/06/18 06:56:17;;;;;;;2.60;2.20;;;;;;;22.11;60.67;100688.84;1822390;77;22540;-65
2021/06/18 06:58:54;;;;;;;3.08;2.17;;;;;;;22.13;60.47;100686.86;1819641;77;22580;-68
2021/06/18 07:01:39;;;;;;;5.42;2.35;;;;;;;22.13;60.14;100695.31;1789856;80;21126;-67
2021/06/18 07:04:12;;;;;;;2.27;2.00;;;;;;;22.21;60.08;100688.69;1828104;77;22142;-67
2021/06/18 07:06:46;;;;;;;4.80;2.95;;;;;;;22.26;60.01;100694.33;1816641;77;22556;-65
2021/06/18 07:09:19;;;;;;;2.77;2.52;;;;;;;22.29;59.92;100692.67;1840170;77;22153;-66
2021/06/18 07:11:52;;;;;;;3.45;2.70;;;;;;;22.32;59.96;100700.80;1833668;77;22137;-65
2021/06/18 07:14:27;;;;;;;2.45;2.25;;;;;;;22.30;59.75;100706.78;1830652;77;22852;-65
2021/06/18 07:17:02;;;;;;;3.87;2.27;;;;;;;22.28;59.96;100709.59;1816657;77;22158;-66
2021/06/18 07:19:49;;;;;;;3.33;2.20;;;;;;;22.26;60.21;100720.05;1790759;80;21140;-69
2021/06/18 07:22:24;;;;;;;4.28;2.27;;;;;;;22.33;60.70;100703.80;1823832;77;22165;-66
2021/06/18 07:25:00;;;;;;;3.58;2.25;;;;;;;22.39;60.93;100709.77;1766661;77;60383;-65
2021/06/18 07:27:33;;;;;;;2.20;2.00;;;;;;;22.56;61.01;100713.55;1823357;77;22506;-65
2021/06/18 07:30:09;;;;;;;3.27;2.58;;;;;;;22.76;60.71;100718.52;1815104;77;22211;-65
2021/06/18 07:32:45;;;;;;;2.83;2.42;;;;;;;22.83;60.89;100719.03;1816637;77;22205;-66
2021/06/18 07:35:31;;;;;;;3.62;2.90;;;;;;;22.81;60.52;100727.67;1779990;80;21165;-66
2021/06/18 07:38:04;;;;;;;3.55;2.70;;;;;;;22.84;60.08;100732.66;1812904;77;22512;-65
2021/06/18 07:40:37;;;;;;;2.50;2.30;;;;;;;22.82;59.91;100724.02;1816751;77;22289;-65
2021/06/18 07:43:23;;;;;;;4.80;2.70;;;;;;;22.75;60.09;100730.97;1789639;80;21113;-65
2021/06/18 07:45:56;;;;;;;4.25;3.00;;;;;;;22.71;60.23;100726.99;1831801;77;22455;-66
2021/06/18 07:48:31;;;;;;;4.78;2.75;;;;;;;22.63;60.10;100733.64;1809061;77;27948;-66
2021/06/18 07:51:17;;;;;;;2.55;2.45;;;;;;;22.61;60.08;100731.65;1766148;80;21536;-67
2021/06/18 07:53:50;;;;;;;4.47;2.33;;;;;;;22.69;60.14;100733.47;1804055;77;22145;-65
2021/06/18 07:56:26;;;;;;;3.12;2.17;;;;;;;22.70;60.51;100738.62;1825015;77;22145;-65
2021/06/18 07:59:12;;;;;;;3.12;1.92;;;;;;;22.65;60.53;100730.31;1764880;80;21165;-65
2021/06/18 08:01:47;;;;;;;3.72;2.33;;;;;;;22.70;60.40;100732.47;1808089;77;28012;-69
2021/06/18 08:04:22;;;;;;;3.10;2.67;;;;;;;22.74;60.63;100731.97;1825087;77;22161;-67
2021/06/18 08:07:07;;;;;;;5.00;2.70;;;;;;;22.74;61.29;100737.28;1761876;80;21122;-64
2021/06/18 08:09:41;;;;;;;5.78;2.35;;;;;;;22.80;60.07;100741.13;1820389;77;22271;-65
2021/06/18 08:12:14;;;;;;;3.35;2.08;;;;;;;22.82;59.47;100738.64;1826005;77;22568;-66
2021/06/18 08:14:50;;;;;;;3.45;2.42;;;;;;;22.88;58.98;100726.01;1823444;77;22525;-66
2021/06/18 08:17:36;;;;;;;3.67;2.55;;;;;;;22.92;58.80;100725.67;1779018;80;21107;-66
2021/06/18 08:20:11;;;;;;;3.45;2.30;;;;;;;23.03;59.25;100722.16;1826215;77;22514;-65
2021/06/18 08:22:44;;;;;;;5.20;3.00;;;;;;;23.06;59.04;100734.28;1805102;77;22174;-65
2021/06/18 08:25:30;;;;;;;2.70;2.37;;;;;;;22.98;59.46;100727.66;1773242;80;21157;-65
2021/06/18 08:28:05;;;;;;;4.58;2.77;;;;;;;22.98;59.79;100721.84;1826277;77;22595;-65
2021/06/18 08:30:40;;;;;;;3.42;2.42;;;;;;;22.94;60.17;100727.16;1821996;77;22126;-65
2021/06/18 08:33:26;;;;;;;3.10;2.10;;;;;;;22.86;60.63;100721.86;1810436;78;21149;-65
2021/06/18 08:36:01;;;;;;;6.95;2.27;;;;;;;22.92;61.06;100732.31;1809779;77;22896;-66
2021/06/18 08:38:35;;;;;;;2.95;2.75;;;;;;;22.97;61.34;100722.84;1818159;77;22161;-65
2021/06/18 08:41:08;;;;;;;3.47;2.12;;;;;;;23.04;61.32;100724.31;1822764;77;22189;-67
2021/06/18 08:43:44;;;;;;;2.55;2.20;;;;;;;23.15;60.95;100730.60;1810227;77;22141;-65
2021/06/18 08:46:18;;;;;;;4.08;2.77;;;;;;;23.24;60.29;100729.58;1824078;77;22152;-66
2021/06/18 08:48:51;;;;;;;7.03;2.30;;;;;;;23.33;59.83;100727.22;1821742;77;22230;-66
2021/06/18 08:51:36;;;;;;;3.42;2.27;;;;;;;23.40;59.42;100726.83;1769952;80;21506;-68
2021/06/18 08:54:12;;;;;;;3.83;2.50;;;;;;;23.50;59.25;100723.47;1823614;77;22133;-66
2021/06/18 08:56:48;;;;;;;3.10;2.20;;;;;;;23.51;59.48;100715.81;1822868;77;22447;-65
2021/06/18 08:59:23;;;;;;;4.75;2.25;;;;;;;23.49;59.82;100724.47;1835274;77;22186;-66
2021/06/18 09:01:56;;;;;;;2.55;2.35;;;;;;;23.48;60.53;100724.14;1826646;77;22153;-65
2021/06/18 09:07:51;;;;;;;5.80;2.12;;;;;;;23.55;58.82;100722.98;1826726;77;22552;-65
2021/06/18 09:10:39;;;;;;;2.72;2.45;;;;;;;23.56;57.74;100721.14;1824702;77;22166;-66
2021/06/18 09:13:31;;;;;;;3.52;2.58;;;;;;;23.53;57.68;100719.16;1827204;77;22535;-66
2021/06/18 09:16:05;;;;;;;4.67;2.65;;;;;;;23.47;57.85;100729.13;1829741;77;22228;-66
2021/06/18 09:18:41;;;;;;;3.65;2.30;;;;;;;23.45;58.06;100724.98;1817939;77;22169;-67
2021/06/18 09:21:23;;;;;;;5.42;2.60;;;;;;;23.44;58.52;100726.81;1829503;77;20261;-65
2021/06/18 09:23:57;;;;;;;3.98;2.85;;;;;;;23.45;58.89;100728.97;1815154;77;22188;-66
2021/06/18 09:26:34;;;;;;;5.62;2.50;;;;;;;23.47;59.23;100729.13;1767042;77;22489;-65
2021/06/18 09:29:18;;;;;;;3.17;2.80;;;;;;;23.50;59.39;100726.13;1822029;77;22553;-65
2021/06/18 09:32:09;;;;;;;3.67;2.67;;;;;;;23.51;59.86;100723.80;1776959;80;21530;-65
2021/06/18 09:35:01;;;;;;;2.45;2.25;;;;;;;23.65;59.59;100722.77;1844041;76;22146;-67
2021/06/18 09:37:38;;;;;;;4.78;2.50;;;;;;;23.75;58.98;100728.70;1814039;77;22226;-66
2021/06/18 09:40:17;;;;;;;3.00;2.40;;;;;;;23.80;58.88;100711.71;1816185;78;22680;-66
2021/06/18 09:43:03;;;;;;;3.10;2.70;;;;;;;23.72;58.80;100717.08;1823363;77;22606;-65
2021/06/18 09:45:50;;;;;;;3.02;2.60;;;;;;;23.73;57.83;100720.06;1779824;80;21306;-66
2021/06/18 09:48:23;;;;;;;4.20;2.83;;;;;;;23.77;57.86;100722.70;1833466;77;22157;-65
2021/06/18 09:51:01;;;;;;;3.60;2.85;;;;;;;23.79;58.15;100719.37;1814507;77;22495;-66
2021/06/18 09:53:34;;;;;;;4.10;2.50;;;;;;;23.85;57.98;100721.33;1837043;77;22818;-65
2021/06/18 09:56:20;;;;;;;4.00;2.72;;;;;;;23.84;57.75;100699.71;1789417;80;21173;-66
2021/06/18 09:58:53;;;;;;;4.33;2.35;;;;;;;23.83;58.21;100700.72;1807835;77;22201;-65
2021/06/18 10:01:32;;;;;;;3.80;2.80;;;;;;;23.76;58.81;100709.07;1808385;77;22582;-65
2021/06/18 10:04:16;;;;;;;4.10;2.90;;;;;;;23.69;59.13;100708.11;1777582;80;21315;-65
2021/06/18 10:06:51;;;;;;;3.92;2.92;;;;;;;23.63;60.28;100700.33;1822085;77;22573;-66
2021/06/18 10:09:27;;;;;;;4.85;3.20;;;;;;;23.67;59.99;100691.48;1810965;77;28355;-65
2021/06/18 10:12:02;;;;;;;3.30;2.70;;;;;;;23.77;59.84;100696.92;1810643;77;22840;-66
2021/06/18 10:14:37;;;;;;;2.60;2.40;;;;;;;23.88;59.63;100699.69;1807516;77;28242;-65
2021/06/18 10:17:11;;;;;;;2.92;2.37;;;;;;;23.97;59.51;100707.12;1863121;76;22153;-65
2021/06/18 10:19:46;;;;;;;2.70;2.25;;;;;;;23.99;59.29;100707.27;1823714;77;22258;-67
2021/06/18 10:22:33;;;;;;;3.35;2.25;;;;;;;23.93;59.55;100703.98;1787886;80;21506;-65
2021/06/18 10:25:10;;;;;;;3.30;2.20;;;;;;;23.96;59.24;100711.61;1822791;77;22188;-66
2021/06/18 10:27:47;;;;;;;3.20;2.70;;;;;;;23.99;58.43;100708.59;1811687;77;22533;-66
2021/06/18 10:30:31;;;;;;;3.12;2.42;;;;;;;24.02;58.10;100704.75;1824941;77;22568;-66
2021/06/18 10:33:38;;;;;;;2.60;2.40;;;;;;;23.95;58.05;100713.95;1813811;77;22153;-67
2021/06/18 10:36:25;;;;;;;3.15;2.17;;;;;;;23.90;58.07;100720.30;1808534;77;22149;-68
2021/06/18 10:39:07;;;;;;;5.08;2.62;;;;;;;23.80;58.80;100710.38;1789330;77;55157;-67
2021/06/18 10:41:47;;;;;;;2.30;2.10;;;;;;;23.83;58.63;100710.03;1817114;77;22182;-66
2021/06/18 10:44:40;;;;;;;2.77;2.50;;;;;;;23.81;58.85;100714.20;1816912;77;22277;-66
2021/06/18 10:47:34;;;;;;;3.10;2.58;;;;;;;23.82;59.65;100719.02;1816055;77;22577;-66
2021/06/18 10:50:31;;;;;;;3.72;2.60;;;;;;;23.88;59.42;100718.31;1801974;77;22573;-68
2021/06/18 10:53:18;;;;;;;5.47;2.98;;;;;;;23.94;59.86;100722.11;1824797;77;22200;-65
2021/06/18 10:55:53;;;;;;;5.03;2.80;;;;;;;23.98;59.89;100723.41;1778721;77;28150;-68
2021/06/18 10:58:42;;;;;;;2.72;2.45;;;;;;;24.09;59.50;100710.53;1808599;78;28857;-67
2021/06/18 11:01:31;;;;;;;5.00;2.50;;;;;;;24.24;59.06;100720.41;1841566;77;22180;-67
2021/06/18 11:04:37;;;;;;;;;;;;;;;24.19;59.08;100724.44;1794007;80;21194;-66
2021/06/18 11:07:26;;;;;;;4.30;2.35;;;;;;;24.22;59.07;100722.42;1843192;77;22625;-66
2021/06/18 11:10:15;;;;;;;2.87;2.20;;;;;;;24.17;59.25;100725.62;1812195;77;22511;-66
2021/06/18 11:13:04;;;;;;;3.20;2.62;;;;;;;24.03;60.44;100722.39;1788407;80;21447;-66
2021/06/18 11:15:44;;;;;;;4.37;2.47;;;;;;;24.02;60.51;100728.21;1816421;77;22587;-66
2021/06/18 11:18:21;;;;;;;3.92;2.47;;;;;;;24.04;60.61;100722.21;1817244;77;22638;-66
2021/06/18 11:20:54;;;;;;;3.50;2.67;;;;;;;24.04;60.69;100722.21;1819985;77;22149;-66
2021/06/18 11:23:34;;;;;;;3.65;2.42;;;;;;;24.06;60.79;100714.87;1812580;77;22908;-67
2021/06/18 11:26:23;;;;;;;4.35;2.70;;;;;;;24.07;59.96;100723.19;1779472;80;21279;-66
2021/06/18 11:28:58;;;;;;;3.52;2.70;;;;;;;24.14;59.69;100720.14;1814394;77;22812;-66
2021/06/18 11:31:43;;;;;;;3.47;2.85;;;;;;;24.17;59.15;100733.61;1837164;77;22888;-66
2021/06/18 11:34:32;;;;;;;2.92;2.15;;;;;;;24.17;59.21;100721.63;1825973;77;22154;-66
2021/06/18 11:37:08;;;;;;;3.50;2.35;;;;;;;24.14;59.44;100732.13;1827267;77;22134;-66
2021/06/18 11:39:43;;;;;;;3.20;2.27;;;;;;;24.10;59.93;100732.16;1816665;77;22192;-66
2021/06/18 11:42:23;;;;;;;4.75;2.58;;;;;;;24.07;59.73;100721.86;1821594;77;22202;-66
2021/06/18 11:44:58;;;;;;;3.12;2.30;;;;;;;24.08;59.57;100716.86;1816254;77;22976;-65
2021/06/18 11:47:43;;;;;;;4.72;2.67;;;;;;;24.07;59.29;100709.88;1782086;79;21153;-66
2021/06/18 11:50:37;;;;;;;2.37;2.27;;;;;;;24.12;59.19;100718.16;1822528;77;22173;-66
2021/06/18 11:53:14;;;;;;;4.37;2.77;;;;;;;24.16;59.39;100727.45;1813495;77;28000;-65
2021/06/18 11:55:59;;;;;;;5.60;2.35;;;;;;;24.29;59.16;100715.37;1809635;77;22176;-67
2021/06/18 11:58:46;;;;;;;4.80;2.62;;;;;;;24.34;58.78;100722.33;1784107;80;21149;-68
2021/06/18 12:01:29;;;;;;;4.12;2.70;;;;;;;24.47;58.53;100721.23;1834736;77;22525;-65
2021/06/18 12:04:04;;;;;;;4.40;2.95;;;;;;;24.53;58.52;100719.17;1818210;77;22923;-65
2021/06/18 12:06:50;;;;;;;3.33;2.77;;;;;;;24.56;58.18;100717.48;1771464;80;21196;-65
2021/06/18 12:09:24;;;;;;;3.60;2.30;;;;;;;24.64;57.73;100709.42;1818888;77;22246;-66
2021/06/18 12:12:01;;;;;;;4.05;2.37;;;;;;;24.61;57.78;100700.45;1818652;77;22169;-66
2021/06/18 12:14:55;;;;;;;2.85;2.17;;;;;;;24.58;58.14;100714.64;1816512;77;22262;-65
2021/06/18 12:17:31;;;;;;;4.22;2.40;;;;;;;24.57;58.15;100709.81;1782145;77;22175;-67
2021/06/18 12:20:07;;;;;;;2.80;2.60;;;;;;;24.56;58.68;100706.83;1812135;77;22197;-64
2021/06/18 12:22:40;;;;;;;5.20;2.80;;;;;;;24.56;58.72;100706.83;1807367;77;22181;-65
2021/06/18 12:25:13;;;;;;;5.28;2.85;;;;;;;24.61;58.79;100707.11;1841836;77;22149;-65
2021/06/18 12:27:48;;;;;;;3.08;2.77;;;;;;;24.66;58.88;100702.06;1812718;77;22250;-66